Terminal Aerodrome Forecast
Issued by NWS Charleston, WV

Home | Current Version | Previous Version | Text Only | Print | Product List | Glossary On
Versions: 1 2 3 4 5 6 7 8 9 10 11 12 13 14 15 16 17 18 19 20 21 22 23 24 25 26 27
000
FTUS41 KRLX 251728
TAFHTS
TAF
KHTS 251728Z 2518/2618 30006KT P6SM OVC015
     FM252100 30005KT P6SM OVC030
     FM252300 30005KT P6SM BKN045
     FM260400 03003KT 4SM BR BKN045
     FM260800 00000KT 1/4SM FG BKN001
     FM261200 06003KT 3SM BR SCT001
     FM261400 05003KT P6SM SCT040=

USA.gov is the U.S. government's official web portal to all federal, state and local government web resources and services.